sensor_id;sensor_type;location;lat;lon;timestamp;P1;durP1;ratioP1;P2;durP2;ratioP2
20890;SDS011;10605;52.968;8.844;2023-03-01T00:01:33;16.17;;;12.23;;
20890;SDS011;10605;52.968;8.844;2023-03-01T00:03:59;17.10;;;12.50;;
20890;SDS011;10605;52.968;8.844;2023-03-01T00:06:25;22.93;;;13.90;;
20890;SDS011;10605;52.968;8.844;2023-03-01T00:08:53;21.20;;;14.07;;
20890;SDS011;10605;52.968;8.844;2023-03-01T00:11:22;20.83;;;13.80;;
20890;SDS011;10605;52.968;8.844;2023-03-01T00:13:53;19.73;;;13.17;;
20890;SDS011;10605;52.968;8.844;2023-03-01T00:16:22;19.97;;;13.30;;
20890;SDS011;10605;52.968;8.844;2023-03-01T00:18:50;21.00;;;13.93;;
20890;SDS011;10605;52.968;8.844;2023-03-01T00:21:18;23.03;;;13.93;;
20890;SDS011;10605;52.968;8.844;2023-03-01T00:23:45;23.17;;;13.90;;
20890;SDS011;10605;52.968;8.844;2023-03-01T00:26:14;20.97;;;13.77;;
20890;SDS011;10605;52.968;8.844;2023-03-01T00:28:41;23.10;;;14.77;;
20890;SDS011;10605;52.968;8.844;2023-03-01T00:31:19;21.37;;;15.40;;
20890;SDS011;10605;52.968;8.844;2023-03-01T00:33:46;28.60;;;16.70;;
20890;SDS011;10605;52.968;8.844;2023-03-01T00:36:13;28.97;;;16.67;;
20890;SDS011;10605;52.968;8.844;2023-03-01T00:38:41;24.90;;;17.37;;
20890;SDS011;10605;52.968;8.844;2023-03-01T00:41:12;26.97;;;16.57;;
20890;SDS011;10605;52.968;8.844;2023-03-01T00:43:39;24.37;;;16.00;;
20890;SDS011;10605;52.968;8.844;2023-03-01T00:46:07;24.33;;;16.10;;
20890;SDS011;10605;52.968;8.844;2023-03-01T00:48:34;29.83;;;16.30;;
20890;SDS011;10605;52.968;8.844;2023-03-01T00:51:20;24.27;;;16.00;;
20890;SDS011;10605;52.968;8.844;2023-03-01T00:53:47;31.30;;;16.87;;
20890;SDS011;10605;52.968;8.844;2023-03-01T00:56:15;25.50;;;16.13;;
20890;SDS011;10605;52.968;8.844;2023-03-01T00:58:41;25.57;;;15.90;;
20890;SDS011;10605;52.968;8.844;2023-03-01T01:01:08;32.87;;;16.57;;
20890;SDS011;10605;52.968;8.844;2023-03-01T01:03:49;28.93;;;15.90;;
20890;SDS011;10605;52.968;8.844;2023-03-01T01:06:20;32.70;;;17.17;;
20890;SDS011;10605;52.968;8.844;2023-03-01T01:08:50;32.60;;;17.50;;
20890;SDS011;10605;52.968;8.844;2023-03-01T01:11:17;27.60;;;17.00;;
20890;SDS011;10605;52.968;8.844;2023-03-01T01:13:44;30.10;;;17.23;;
20890;SDS011;10605;52.968;8.844;2023-03-01T01:16:11;25.53;;;16.23;;
20890;SDS011;10605;52.968;8.844;2023-03-01T01:18:37;31.77;;;16.70;;
20890;SDS011;10605;52.968;8.844;2023-03-01T01:21:05;30.93;;;16.93;;
20890;SDS011;10605;52.968;8.844;2023-03-01T01:23:38;23.77;;;16.83;;
20890;SDS011;10605;52.968;8.844;2023-03-01T01:26:06;26.37;;;16.70;;
20890;SDS011;10605;52.968;8.844;2023-03-01T01:28:33;21.20;;;16.27;;
20890;SDS011;10605;52.968;8.844;2023-03-01T01:30:59;25.43;;;17.00;;
20890;SDS011;10605;52.968;8.844;2023-03-01T01:33:25;25.83;;;16.93;;
20890;SDS011;10605;52.968;8.844;2023-03-01T01:35:51;25.87;;;16.27;;
20890;SDS011;10605;52.968;8.844;2023-03-01T01:38:17;24.30;;;16.90;;
20890;SDS011;10605;52.968;8.844;2023-03-01T01:40:44;28.33;;;17.30;;
20890;SDS011;10605;52.968;8.844;2023-03-01T01:43:14;27.13;;;16.63;;
20890;SDS011;10605;52.968;8.844;2023-03-01T01:45:59;24.20;;;15.17;;
20890;SDS011;10605;52.968;8.844;2023-03-01T01:48:32;25.47;;;15.60;;
20890;SDS011;10605;52.968;8.844;2023-03-01T01:51:05;23.87;;;15.60;;
20890;SDS011;10605;52.968;8.844;2023-03-01T01:53:34;21.23;;;15.23;;
20890;SDS011;10605;52.968;8.844;2023-03-01T01:56:01;27.07;;;16.07;;
20890;SDS011;10605;52.968;8.844;2023-03-01T01:58:28;24.47;;;15.90;;
20890;SDS011;10605;52.968;8.844;2023-03-01T02:00:55;19.77;;;15.43;;
20890;SDS011;10605;52.968;8.844;2023-03-01T02:03:39;23.70;;;15.23;;
20890;SDS011;10605;52.968;8.844;2023-03-01T02:08:53;24.40;;;16.03;;
20890;SDS011;10605;52.968;8.844;2023-03-01T02:11:24;22.20;;;14.77;;
20890;SDS011;10605;52.968;8.844;2023-03-01T02:13:51;22.87;;;14.20;;
20890;SDS011;10605;52.968;8.844;2023-03-01T02:16:19;26.70;;;14.07;;
20890;SDS011;10605;52.968;8.844;2023-03-01T02:18:47;23.30;;;14.53;;
20890;SDS011;10605;52.968;8.844;2023-03-01T02:21:17;18.53;;;13.90;;
20890;SDS011;10605;52.968;8.844;2023-03-01T02:24:02;21.33;;;14.10;;
20890;SDS011;10605;52.968;8.844;2023-03-01T02:26:51;24.67;;;14.73;;
20890;SDS011;10605;52.968;8.844;2023-03-01T02:29:20;21.80;;;14.67;;
20890;SDS011;10605;52.968;8.844;2023-03-01T02:31:47;19.43;;;14.33;;
20890;SDS011;10605;52.968;8.844;2023-03-01T02:34:18;22.67;;;15.10;;
20890;SDS011;10605;52.968;8.844;2023-03-01T02:36:48;21.37;;;14.13;;
20890;SDS011;10605;52.968;8.844;2023-03-01T02:39:18;17.43;;;13.60;;
20890;SDS011;10605;52.968;8.844;2023-03-01T02:41:50;19.83;;;13.30;;
20890;SDS011;10605;52.968;8.844;2023-03-01T02:44:17;21.30;;;13.93;;
20890;SDS011;10605;52.968;8.844;2023-03-01T02:46:45;21.23;;;14.00;;
20890;SDS011;10605;52.968;8.844;2023-03-01T02:49:18;20.33;;;13.50;;
20890;SDS011;10605;52.968;8.844;2023-03-01T02:51:56;17.80;;;13.60;;
20890;SDS011;10605;52.968;8.844;2023-03-01T02:54:46;18.10;;;13.43;;
20890;SDS011;10605;52.968;8.844;2023-03-01T02:57:21;22.00;;;14.20;;
20890;SDS011;10605;52.968;8.844;2023-03-01T02:59:48;20.67;;;13.50;;
20890;SDS011;10605;52.968;8.844;2023-03-01T03:02:20;19.50;;;13.63;;
20890;SDS011;10605;52.968;8.844;2023-03-01T03:05:11;19.33;;;13.67;;
20890;SDS011;10605;52.968;8.844;2023-03-01T03:07:40;19.13;;;12.83;;
20890;SDS011;10605;52.968;8.844;2023-03-01T03:10:13;20.67;;;13.00;;
20890;SDS011;10605;52.968;8.844;2023-03-01T03:12:47;16.90;;;12.40;;
20890;SDS011;10605;52.968;8.844;2023-03-01T03:15:16;21.03;;;13.07;;
20890;SDS011;10605;52.968;8.844;2023-03-01T03:17:42;17.00;;;13.10;;
20890;SDS011;10605;52.968;8.844;2023-03-01T03:20:09;16.40;;;12.23;;
20890;SDS011;10605;52.968;8.844;2023-03-01T03:22:40;18.67;;;12.43;;
20890;SDS011;10605;52.968;8.844;2023-03-01T03:25:06;21.13;;;12.13;;
20890;SDS011;10605;52.968;8.844;2023-03-01T03:27:38;13.70;;;12.07;;
20890;SDS011;10605;52.968;8.844;2023-03-01T03:30:05;18.77;;;12.07;;
20890;SDS011;10605;52.968;8.844;2023-03-01T03:32:34;15.57;;;11.97;;
20890;SDS011;10605;52.968;8.844;2023-03-01T03:35:02;15.60;;;11.60;;
20890;SDS011;10605;52.968;8.844;2023-03-01T03:37:35;15.27;;;11.47;;
20890;SDS011;10605;52.968;8.844;2023-03-01T03:40:22;15.80;;;11.83;;
20890;SDS011;10605;52.968;8.844;2023-03-01T03:42:48;17.10;;;11.17;;
20890;SDS011;10605;52.968;8.844;2023-03-01T03:45:14;15.30;;;11.77;;
20890;SDS011;10605;52.968;8.844;2023-03-01T03:47:41;17.10;;;11.87;;
20890;SDS011;10605;52.968;8.844;2023-03-01T03:50:08;14.97;;;10.63;;
20890;SDS011;10605;52.968;8.844;2023-03-01T03:52:35;13.97;;;10.77;;
20890;SDS011;10605;52.968;8.844;2023-03-01T03:55:00;15.63;;;10.47;;
20890;SDS011;10605;52.968;8.844;2023-03-01T03:57:26;18.37;;;11.43;;
20890;SDS011;10605;52.968;8.844;2023-03-01T03:59:52;17.17;;;11.03;;
20890;SDS011;10605;52.968;8.844;2023-03-01T04:02:17;17.10;;;12.23;;
20890;SDS011;10605;52.968;8.844;2023-03-01T04:04:47;17.33;;;11.93;;
20890;SDS011;10605;52.968;8.844;2023-03-01T04:07:16;17.20;;;12.27;;
20890;SDS011;10605;52.968;8.844;2023-03-01T04:09:42;16.13;;;11.03;;
20890;SDS011;10605;52.968;8.844;2023-03-01T04:12:09;23.43;;;11.60;;
20890;SDS011;10605;52.968;8.844;2023-03-01T04:14:35;18.87;;;12.43;;
20890;SDS011;10605;52.968;8.844;2023-03-01T04:17:01;16.63;;;11.93;;
20890;SDS011;10605;52.968;8.844;2023-03-01T04:19:30;15.30;;;11.50;;
20890;SDS011;10605;52.968;8.844;2023-03-01T04:22:01;20.93;;;12.47;;
20890;SDS011;10605;52.968;8.844;2023-03-01T04:24:34;17.30;;;12.20;;
20890;SDS011;10605;52.968;8.844;2023-03-01T04:27:01;16.13;;;12.27;;
20890;SDS011;10605;52.968;8.844;2023-03-01T04:29:27;15.33;;;11.33;;
20890;SDS011;10605;52.968;8.844;2023-03-01T04:31:52;16.60;;;11.83;;
20890;SDS011;10605;52.968;8.844;2023-03-01T04:34:18;17.47;;;12.17;;
20890;SDS011;10605;52.968;8.844;2023-03-01T04:36:44;17.30;;;11.77;;
20890;SDS011;10605;52.968;8.844;2023-03-01T04:39:10;20.07;;;12.27;;
20890;SDS011;10605;52.968;8.844;2023-03-01T04:41:38;18.17;;;12.23;;
20890;SDS011;10605;52.968;8.844;2023-03-01T04:44:06;15.00;;;11.67;;
20890;SDS011;10605;52.968;8.844;2023-03-01T04:46:34;20.53;;;12.13;;
20890;SDS011;10605;52.968;8.844;2023-03-01T04:49:00;17.43;;;12.80;;
20890;SDS011;10605;52.968;8.844;2023-03-01T04:51:28;15.17;;;11.53;;
20890;SDS011;10605;52.968;8.844;2023-03-01T04:53:54;15.70;;;11.80;;
20890;SDS011;10605;52.968;8.844;2023-03-01T04:56:20;16.83;;;11.37;;
20890;SDS011;10605;52.968;8.844;2023-03-01T04:58:48;19.33;;;12.63;;
20890;SDS011;10605;52.968;8.844;2023-03-01T05:01:17;15.23;;;12.07;;
20890;SDS011;10605;52.968;8.844;2023-03-01T05:03:45;15.63;;;12.70;;
20890;SDS011;10605;52.968;8.844;2023-03-01T05:06:13;14.60;;;12.37;;
20890;SDS011;10605;52.968;8.844;2023-03-01T05:08:40;18.63;;;12.07;;
20890;SDS011;10605;52.968;8.844;2023-03-01T05:11:07;20.10;;;12.57;;
20890;SDS011;10605;52.968;8.844;2023-03-01T05:13:36;18.10;;;11.97;;
20890;SDS011;10605;52.968;8.844;2023-03-01T05:16:03;16.10;;;12.03;;
20890;SDS011;10605;52.968;8.844;2023-03-01T05:18:30;13.73;;;11.33;;
20890;SDS011;10605;52.968;8.844;2023-03-01T05:21:16;14.07;;;11.17;;
20890;SDS011;10605;52.968;8.844;2023-03-01T05:23:41;17.57;;;11.53;;
20890;SDS011;10605;52.968;8.844;2023-03-01T05:26:07;19.90;;;12.43;;
20890;SDS011;10605;52.968;8.844;2023-03-01T05:28:34;16.20;;;12.03;;
20890;SDS011;10605;52.968;8.844;2023-03-01T05:31:02;16.83;;;12.23;;
20890;SDS011;10605;52.968;8.844;2023-03-01T05:33:34;17.63;;;11.90;;
20890;SDS011;10605;52.968;8.844;2023-03-01T05:36:04;16.10;;;12.47;;
20890;SDS011;10605;52.968;8.844;2023-03-01T05:38:32;17.10;;;11.50;;
20890;SDS011;10605;52.968;8.844;2023-03-01T05:41:01;20.10;;;12.20;;
20890;SDS011;10605;52.968;8.844;2023-03-01T05:43:29;21.83;;;12.37;;
20890;SDS011;10605;52.968;8.844;2023-03-01T05:45:59;18.23;;;12.23;;
20890;SDS011;10605;52.968;8.844;2023-03-01T05:48:24;21.87;;;11.87;;
20890;SDS011;10605;52.968;8.844;2023-03-01T05:50:51;17.10;;;12.30;;
20890;SDS011;10605;52.968;8.844;2023-03-01T05:53:18;17.23;;;12.13;;
20890;SDS011;10605;52.968;8.844;2023-03-01T05:55:46;16.77;;;11.63;;
20890;SDS011;10605;52.968;8.844;2023-03-01T05:58:19;20.23;;;11.57;;
20890;SDS011;10605;52.968;8.844;2023-03-01T06:00:47;13.73;;;11.50;;
20890;SDS011;10605;52.968;8.844;2023-03-01T06:03:14;15.20;;;11.70;;
20890;SDS011;10605;52.968;8.844;2023-03-01T06:05:41;16.97;;;12.10;;
20890;SDS011;10605;52.968;8.844;2023-03-01T06:08:08;16.27;;;11.80;;
20890;SDS011;10605;52.968;8.844;2023-03-01T06:10:35;21.23;;;12.77;;
20890;SDS011;10605;52.968;8.844;2023-03-01T06:13:00;20.07;;;11.83;;
20890;SDS011;10605;52.968;8.844;2023-03-01T06:15:26;18.57;;;11.90;;
20890;SDS011;10605;52.968;8.844;2023-03-01T06:17:53;14.57;;;11.20;;
20890;SDS011;10605;52.968;8.844;2023-03-01T06:20:22;15.20;;;12.10;;
20890;SDS011;10605;52.968;8.844;2023-03-01T06:22:49;19.50;;;11.40;;
20890;SDS011;10605;52.968;8.844;2023-03-01T06:25:19;18.33;;;11.83;;
20890;SDS011;10605;52.968;8.844;2023-03-01T06:27:47;15.90;;;12.00;;
20890;SDS011;10605;52.968;8.844;2023-03-01T06:32:44;16.33;;;11.57;;
20890;SDS011;10605;52.968;8.844;2023-03-01T06:35:13;17.07;;;12.00;;
20890;SDS011;10605;52.968;8.844;2023-03-01T06:37:45;16.27;;;11.90;;
20890;SDS011;10605;52.968;8.844;2023-03-01T06:42:49;22.43;;;12.30;;
20890;SDS011;10605;52.968;8.844;2023-03-01T06:45:21;21.13;;;12.73;;
20890;SDS011;10605;52.968;8.844;2023-03-01T06:47:47;20.40;;;11.73;;
20890;SDS011;10605;52.968;8.844;2023-03-01T06:50:14;15.17;;;11.73;;
20890;SDS011;10605;52.968;8.844;2023-03-01T06:52:43;20.97;;;11.67;;
20890;SDS011;10605;52.968;8.844;2023-03-01T06:55:13;17.67;;;11.43;;
20890;SDS011;10605;52.968;8.844;2023-03-01T06:57:42;17.17;;;11.27;;
20890;SDS011;10605;52.968;8.844;2023-03-01T07:00:08;22.23;;;12.23;;
20890;SDS011;10605;52.968;8.844;2023-03-01T07:02:37;25.60;;;14.27;;
20890;SDS011;10605;52.968;8.844;2023-03-01T07:05:03;29.30;;;16.10;;
20890;SDS011;10605;52.968;8.844;2023-03-01T07:07:32;26.27;;;16.27;;
20890;SDS011;10605;52.968;8.844;2023-03-01T07:09:58;20.47;;;13.93;;
20890;SDS011;10605;52.968;8.844;2023-03-01T07:12:31;21.47;;;14.10;;
20890;SDS011;10605;52.968;8.844;2023-03-01T07:15:00;21.50;;;15.00;;
20890;SDS011;10605;52.968;8.844;2023-03-01T07:17:25;16.93;;;13.33;;
20890;SDS011;10605;52.968;8.844;2023-03-01T07:19:53;15.17;;;12.37;;
20890;SDS011;10605;52.968;8.844;2023-03-01T07:22:22;13.20;;;11.17;;
20890;SDS011;10605;52.968;8.844;2023-03-01T07:24:48;15.97;;;10.83;;
20890;SDS011;10605;52.968;8.844;2023-03-01T07:27:16;16.17;;;11.18;;
20890;SDS011;10605;52.968;8.844;2023-03-01T07:29:44;14.57;;;11.27;;
20890;SDS011;10605;52.968;8.844;2023-03-01T07:32:13;12.50;;;10.48;;
20890;SDS011;10605;52.968;8.844;2023-03-01T07:34:39;11.53;;;9.83;;
20890;SDS011;10605;52.968;8.844;2023-03-01T07:37:05;12.18;;;9.68;;
20890;SDS011;10605;52.968;8.844;2023-03-01T07:39:30;16.25;;;10.80;;
20890;SDS011;10605;52.968;8.844;2023-03-01T07:41:59;13.07;;;10.68;;
20890;SDS011;10605;52.968;8.844;2023-03-01T07:44:24;12.85;;;9.93;;
20890;SDS011;10605;52.968;8.844;2023-03-01T07:46:50;14.40;;;9.93;;
20890;SDS011;10605;52.968;8.844;2023-03-01T07:49:21;13.65;;;10.38;;
20890;SDS011;10605;52.968;8.844;2023-03-01T07:51:51;14.50;;;10.35;;
20890;SDS011;10605;52.968;8.844;2023-03-01T07:54:19;16.88;;;10.32;;
20890;SDS011;10605;52.968;8.844;2023-03-01T07:56:45;14.68;;;10.45;;
20890;SDS011;10605;52.968;8.844;2023-03-01T07:59:13;12.88;;;9.98;;
20890;SDS011;10605;52.968;8.844;2023-03-01T08:01:39;14.65;;;10.30;;
20890;SDS011;10605;52.968;8.844;2023-03-01T08:04:15;14.98;;;10.07;;
20890;SDS011;10605;52.968;8.844;2023-03-01T08:06:52;13.40;;;10.10;;
20890;SDS011;10605;52.968;8.844;2023-03-01T08:19:31;9.90;;;8.90;;
20890;SDS011;10605;52.968;8.844;2023-03-01T08:22:03;13.07;;;9.73;;
20890;SDS011;10605;52.968;8.844;2023-03-01T08:24:57;14.05;;;8.77;;
20890;SDS011;10605;52.968;8.844;2023-03-01T08:28:10;9.68;;;8.70;;
20890;SDS011;10605;52.968;8.844;2023-03-01T08:34:17;10.32;;;8.85;;
20890;SDS011;10605;52.968;8.844;2023-03-01T08:43:51;10.50;;;9.25;;
20890;SDS011;10605;52.968;8.844;2023-03-01T08:50:02;12.50;;;8.32;;
20890;SDS011;10605;52.968;8.844;2023-03-01T08:53:03;7.28;;;6.68;;
20890;SDS011;10605;52.968;8.844;2023-03-01T08:56:05;7.47;;;6.88;;
20890;SDS011;10605;52.968;8.844;2023-03-01T08:58:53;8.52;;;7.72;;
20890;SDS011;10605;52.968;8.844;2023-03-01T09:02:42;8.63;;;7.50;;
20890;SDS011;10605;52.968;8.844;2023-03-01T10:38:57;7.03;;;5.00;;
20890;SDS011;10605;52.968;8.844;2023-03-01T10:42:26;6.05;;;5.20;;
20890;SDS011;10605;52.968;8.844;2023-03-01T10:45:59;6.30;;;5.70;;
20890;SDS011;10605;52.968;8.844;2023-03-01T10:52:59;8.55;;;7.35;;
20890;SDS011;10605;52.968;8.844;2023-03-01T10:56:19;10.05;;;7.80;;
20890;SDS011;10605;52.968;8.844;2023-03-01T10:59:30;14.23;;;9.10;;
20890;SDS011;10605;52.968;8.844;2023-03-01T11:03:21;13.23;;;11.32;;
20890;SDS011;10605;52.968;8.844;2023-03-01T11:41:31;8.35;;;7.55;;
20890;SDS011;10605;52.968;8.844;2023-03-01T12:39:19;10.75;;;8.23;;
20890;SDS011;10605;52.968;8.844;2023-03-01T12:47:41;13.82;;;8.43;;
20890;SDS011;10605;52.968;8.844;2023-03-01T12:50:21;8.48;;;7.78;;
20890;SDS011;10605;52.968;8.844;2023-03-01T12:52:56;8.98;;;8.10;;
20890;SDS011;10605;52.968;8.844;2023-03-01T12:58:41;9.20;;;8.30;;
20890;SDS011;10605;52.968;8.844;2023-03-01T13:22:25;9.40;;;8.45;;
20890;SDS011;10605;52.968;8.844;2023-03-01T13:25:13;11.15;;;8.88;;
20890;SDS011;10605;52.968;8.844;2023-03-01T13:27:41;9.52;;;8.68;;
20890;SDS011;10605;52.968;8.844;2023-03-01T13:30:37;12.20;;;9.18;;
20890;SDS011;10605;52.968;8.844;2023-03-01T13:33:41;9.98;;;9.00;;
20890;SDS011;10605;52.968;8.844;2023-03-01T13:36:07;10.43;;;9.35;;
20890;SDS011;10605;52.968;8.844;2023-03-01T13:38:48;8.60;;;7.72;;
20890;SDS011;10605;52.968;8.844;2023-03-01T13:46:51;10.45;;;9.35;;
20890;SDS011;10605;52.968;8.844;2023-03-01T13:49:36;10.02;;;9.13;;
20890;SDS011;10605;52.968;8.844;2023-03-01T13:52:42;10.80;;;8.63;;
20890;SDS011;10605;52.968;8.844;2023-03-01T13:55:16;21.48;;;10.05;;
20890;SDS011;10605;52.968;8.844;2023-03-01T13:57:46;11.15;;;9.05;;
20890;SDS011;10605;52.968;8.844;2023-03-01T14:00:28;10.35;;;9.25;;
20890;SDS011;10605;52.968;8.844;2023-03-01T14:03:06;9.80;;;8.55;;
20890;SDS011;10605;52.968;8.844;2023-03-01T14:05:35;13.70;;;9.23;;
20890;SDS011;10605;52.968;8.844;2023-03-01T14:08:05;9.65;;;8.85;;
20890;SDS011;10605;52.968;8.844;2023-03-01T14:10:47;10.48;;;9.38;;
20890;SDS011;10605;52.968;8.844;2023-03-01T14:14:01;10.68;;;9.23;;
20890;SDS011;10605;52.968;8.844;2023-03-01T14:16:34;12.13;;;10.48;;
20890;SDS011;10605;52.968;8.844;2023-03-01T14:19:21;11.60;;;10.40;;
20890;SDS011;10605;52.968;8.844;2023-03-01T14:25:00;11.40;;;10.18;;
20890;SDS011;10605;52.968;8.844;2023-03-01T14:28:03;11.43;;;9.77;;
20890;SDS011;10605;52.968;8.844;2023-03-01T14:30:45;10.48;;;9.40;;
20890;SDS011;10605;52.968;8.844;2023-03-01T14:33:23;10.52;;;9.43;;
20890;SDS011;10605;52.968;8.844;2023-03-01T14:38:44;10.90;;;9.77;;
20890;SDS011;10605;52.968;8.844;2023-03-01T14:41:14;9.93;;;9.02;;
20890;SDS011;10605;52.968;8.844;2023-03-01T14:43:50;10.40;;;8.80;;
20890;SDS011;10605;52.968;8.844;2023-03-01T14:46:21;10.23;;;9.25;;
20890;SDS011;10605;52.968;8.844;2023-03-01T14:48:55;9.07;;;8.27;;
20890;SDS011;10605;52.968;8.844;2023-03-01T14:51:30;9.40;;;8.30;;
20890;SDS011;10605;52.968;8.844;2023-03-01T14:54:00;12.30;;;9.35;;
20890;SDS011;10605;52.968;8.844;2023-03-01T14:56:26;10.88;;;9.02;;
20890;SDS011;10605;52.968;8.844;2023-03-01T14:58:52;10.98;;;9.48;;
20890;SDS011;10605;52.968;8.844;2023-03-01T15:01:25;9.95;;;8.98;;
20890;SDS011;10605;52.968;8.844;2023-03-01T15:03:52;9.90;;;8.30;;
20890;SDS011;10605;52.968;8.844;2023-03-01T15:06:19;9.98;;;8.90;;
20890;SDS011;10605;52.968;8.844;2023-03-01T15:08:48;13.27;;;8.63;;
20890;SDS011;10605;52.968;8.844;2023-03-01T15:13:56;11.63;;;9.10;;
20890;SDS011;10605;52.968;8.844;2023-03-01T15:18:53;9.85;;;8.85;;
20890;SDS011;10605;52.968;8.844;2023-03-01T15:21:23;10.38;;;9.02;;
20890;SDS011;10605;52.968;8.844;2023-03-01T15:24:02;15.63;;;9.10;;
20890;SDS011;10605;52.968;8.844;2023-03-01T15:26:44;9.60;;;8.70;;
20890;SDS011;10605;52.968;8.844;2023-03-01T15:29:17;11.00;;;9.38;;
20890;SDS011;10605;52.968;8.844;2023-03-01T15:31:52;13.18;;;9.02;;
20890;SDS011;10605;52.968;8.844;2023-03-01T15:34:25;11.55;;;9.35;;
20890;SDS011;10605;52.968;8.844;2023-03-01T15:36:55;10.98;;;8.98;;
20890;SDS011;10605;52.968;8.844;2023-03-01T15:39:31;9.63;;;8.73;;
20890;SDS011;10605;52.968;8.844;2023-03-01T15:44:41;11.63;;;9.43;;
20890;SDS011;10605;52.968;8.844;2023-03-01T15:47:29;14.07;;;8.75;;
20890;SDS011;10605;52.968;8.844;2023-03-01T15:49:55;10.55;;;9.55;;
20890;SDS011;10605;52.968;8.844;2023-03-01T15:54:55;12.20;;;9.25;;
20890;SDS011;10605;52.968;8.844;2023-03-01T15:57:22;11.45;;;8.85;;
20890;SDS011;10605;52.968;8.844;2023-03-01T15:59:47;10.23;;;9.07;;
20890;SDS011;10605;52.968;8.844;2023-03-01T16:02:14;13.32;;;9.48;;
20890;SDS011;10605;52.968;8.844;2023-03-01T16:04:40;10.93;;;9.48;;
20890;SDS011;10605;52.968;8.844;2023-03-01T16:07:08;13.25;;;9.52;;
20890;SDS011;10605;52.968;8.844;2023-03-01T16:09:34;10.02;;;9.00;;
20890;SDS011;10605;52.968;8.844;2023-03-01T16:12:00;16.58;;;9.93;;
20890;SDS011;10605;52.968;8.844;2023-03-01T16:14:26;11.45;;;10.30;;
20890;SDS011;10605;52.968;8.844;2023-03-01T16:16:52;12.95;;;10.35;;
20890;SDS011;10605;52.968;8.844;2023-03-01T16:19:18;13.20;;;11.32;;
20890;SDS011;10605;52.968;8.844;2023-03-01T16:21:44;13.68;;;10.75;;
20890;SDS011;10605;52.968;8.844;2023-03-01T16:24:11;12.50;;;10.80;;
20890;SDS011;10605;52.968;8.844;2023-03-01T16:26:38;15.77;;;11.43;;
20890;SDS011;10605;52.968;8.844;2023-03-01T16:29:04;15.50;;;12.02;;
20890;SDS011;10605;52.968;8.844;2023-03-01T16:31:30;19.52;;;12.38;;
20890;SDS011;10605;52.968;8.844;2023-03-01T16:33:56;17.42;;;12.70;;
20890;SDS011;10605;52.968;8.844;2023-03-01T16:36:23;15.50;;;12.75;;
20890;SDS011;10605;52.968;8.844;2023-03-01T16:38:53;19.38;;;13.95;;
20890;SDS011;10605;52.968;8.844;2023-03-01T16:41:20;18.92;;;13.63;;
20890;SDS011;10605;52.968;8.844;2023-03-01T16:43:47;15.65;;;13.57;;
20890;SDS011;10605;52.968;8.844;2023-03-01T16:46:14;19.75;;;13.52;;
20890;SDS011;10605;52.968;8.844;2023-03-01T16:48:42;18.95;;;14.55;;
20890;SDS011;10605;52.968;8.844;2023-03-01T16:51:08;19.90;;;13.57;;
20890;SDS011;10605;52.968;8.844;2023-03-01T16:53:35;22.25;;;14.95;;
20890;SDS011;10605;52.968;8.844;2023-03-01T16:56:01;19.42;;;14.23;;
20890;SDS011;10605;52.968;8.844;2023-03-01T16:58:28;20.55;;;15.15;;
20890;SDS011;10605;52.968;8.844;2023-03-01T17:00:55;21.55;;;14.98;;
20890;SDS011;10605;52.968;8.844;2023-03-01T17:03:24;22.10;;;15.60;;
20890;SDS011;10605;52.968;8.844;2023-03-01T17:05:54;23.15;;;15.80;;
20890;SDS011;10605;52.968;8.844;2023-03-01T17:08:20;18.30;;;14.40;;
20890;SDS011;10605;52.968;8.844;2023-03-01T17:10:45;22.60;;;15.10;;
20890;SDS011;10605;52.968;8.844;2023-03-01T17:13:11;24.00;;;15.95;;
20890;SDS011;10605;52.968;8.844;2023-03-01T17:15:40;25.15;;;15.55;;
20890;SDS011;10605;52.968;8.844;2023-03-01T17:18:07;26.63;;;16.65;;
20890;SDS011;10605;52.968;8.844;2023-03-01T17:20:33;29.17;;;16.88;;
20890;SDS011;10605;52.968;8.844;2023-03-01T17:22:59;29.38;;;16.67;;
20890;SDS011;10605;52.968;8.844;2023-03-01T17:25:25;27.75;;;17.05;;
20890;SDS011;10605;52.968;8.844;2023-03-01T17:27:51;31.63;;;17.75;;
20890;SDS011;10605;52.968;8.844;2023-03-01T17:30:17;30.40;;;16.55;;
20890;SDS011;10605;52.968;8.844;2023-03-01T17:32:43;25.25;;;16.77;;
20890;SDS011;10605;52.968;8.844;2023-03-01T17:35:09;29.95;;;18.45;;
20890;SDS011;10605;52.968;8.844;2023-03-01T17:37:38;25.83;;;16.50;;
20890;SDS011;10605;52.968;8.844;2023-03-01T17:40:04;29.17;;;17.10;;
20890;SDS011;10605;52.968;8.844;2023-03-01T17:42:31;30.45;;;17.77;;
20890;SDS011;10605;52.968;8.844;2023-03-01T17:44:57;26.67;;;17.77;;
20890;SDS011;10605;52.968;8.844;2023-03-01T17:47:24;30.33;;;19.20;;
20890;SDS011;10605;52.968;8.844;2023-03-01T17:49:50;32.10;;;19.75;;
20890;SDS011;10605;52.968;8.844;2023-03-01T17:52:15;29.92;;;19.30;;
20890;SDS011;10605;52.968;8.844;2023-03-01T17:54:41;33.30;;;20.23;;
20890;SDS011;10605;52.968;8.844;2023-03-01T17:57:07;37.22;;;20.58;;
20890;SDS011;10605;52.968;8.844;2023-03-01T17:59:35;30.13;;;18.83;;
20890;SDS011;10605;52.968;8.844;2023-03-01T18:02:03;33.63;;;21.80;;
20890;SDS011;10605;52.968;8.844;2023-03-01T18:04:29;36.70;;;22.10;;
20890;SDS011;10605;52.968;8.844;2023-03-01T18:06:56;38.83;;;22.10;;
20890;SDS011;10605;52.968;8.844;2023-03-01T18:09:23;40.28;;;22.58;;
20890;SDS011;10605;52.968;8.844;2023-03-01T18:11:51;39.22;;;22.17;;
20890;SDS011;10605;52.968;8.844;2023-03-01T18:14:17;41.33;;;23.77;;
20890;SDS011;10605;52.968;8.844;2023-03-01T18:16:43;42.55;;;22.92;;
20890;SDS011;10605;52.968;8.844;2023-03-01T18:19:09;42.33;;;23.58;;
20890;SDS011;10605;52.968;8.844;2023-03-01T18:21:35;39.65;;;23.90;;
20890;SDS011;10605;52.968;8.844;2023-03-01T18:24:01;38.85;;;23.02;;
20890;SDS011;10605;52.968;8.844;2023-03-01T18:26:27;52.60;;;24.95;;
20890;SDS011;10605;52.968;8.844;2023-03-01T18:28:53;47.33;;;25.35;;
20890;SDS011;10605;52.968;8.844;2023-03-01T18:31:22;47.72;;;25.45;;
20890;SDS011;10605;52.968;8.844;2023-03-01T18:33:49;47.08;;;26.55;;
20890;SDS011;10605;52.968;8.844;2023-03-01T18:38:47;50.35;;;28.98;;
20890;SDS011;10605;52.968;8.844;2023-03-01T18:41:43;53.15;;;28.10;;
20890;SDS011;10605;52.968;8.844;2023-03-01T18:44:09;49.78;;;27.98;;
20890;SDS011;10605;52.968;8.844;2023-03-01T18:46:38;51.78;;;29.55;;
20890;SDS011;10605;52.968;8.844;2023-03-01T18:49:05;56.42;;;30.67;;
20890;SDS011;10605;52.968;8.844;2023-03-01T18:51:31;60.25;;;31.58;;
20890;SDS011;10605;52.968;8.844;2023-03-01T18:53:59;60.78;;;31.67;;
20890;SDS011;10605;52.968;8.844;2023-03-01T18:56:25;59.65;;;30.83;;
20890;SDS011;10605;52.968;8.844;2023-03-01T18:58:52;58.00;;;31.23;;
20890;SDS011;10605;52.968;8.844;2023-03-01T19:01:22;58.33;;;31.48;;
20890;SDS011;10605;52.968;8.844;2023-03-01T19:03:50;59.45;;;32.10;;
20890;SDS011;10605;52.968;8.844;2023-03-01T19:06:16;55.47;;;31.95;;
20890;SDS011;10605;52.968;8.844;2023-03-01T19:08:43;59.15;;;32.75;;
20890;SDS011;10605;52.968;8.844;2023-03-01T19:11:09;58.85;;;32.30;;
20890;SDS011;10605;52.968;8.844;2023-03-01T19:13:36;59.40;;;32.03;;
20890;SDS011;10605;52.968;8.844;2023-03-01T19:16:10;58.35;;;30.73;;
20890;SDS011;10605;52.968;8.844;2023-03-01T19:18:38;59.03;;;31.45;;
20890;SDS011;10605;52.968;8.844;2023-03-01T19:21:08;58.85;;;31.30;;
20890;SDS011;10605;52.968;8.844;2023-03-01T19:23:36;60.30;;;31.70;;
20890;SDS011;10605;52.968;8.844;2023-03-01T19:26:04;59.05;;;29.77;;